sensor_id;sensor_type;location;lat;lon;timestamp;P1;durP1;ratioP1;P2;durP2;ratioP2
19883;SDS011;10104;50.732;10.174;2023-04-24T00:00:55;2.53;;;1.10;;
19883;SDS011;10104;50.732;10.174;2023-04-24T00:03:22;2.47;;;1.30;;
19883;SDS011;10104;50.732;10.174;2023-04-24T00:05:45;2.20;;;1.17;;
19883;SDS011;10104;50.732;10.174;2023-04-24T00:08:06;2.23;;;1.20;;
19883;SDS011;10104;50.732;10.174;2023-04-24T00:10:28;1.57;;;1.17;;
19883;SDS011;10104;50.732;10.174;2023-04-24T00:12:49;1.27;;;1.10;;
19883;SDS011;10104;50.732;10.174;2023-04-24T00:15:11;2.23;;;1.20;;
19883;SDS011;10104;50.732;10.174;2023-04-24T00:17:32;1.73;;;1.20;;
19883;SDS011;10104;50.732;10.174;2023-04-24T00:19:54;1.77;;;1.10;;
19883;SDS011;10104;50.732;10.174;2023-04-24T00:22:22;1.67;;;1.20;;
19883;SDS011;10104;50.732;10.174;2023-04-24T00:24:44;1.97;;;1.30;;
19883;SDS011;10104;50.732;10.174;2023-04-24T00:27:06;1.83;;;1.30;;
19883;SDS011;10104;50.732;10.174;2023-04-24T00:29:27;2.70;;;1.00;;
19883;SDS011;10104;50.732;10.174;2023-04-24T00:31:49;2.77;;;1.30;;
19883;SDS011;10104;50.732;10.174;2023-04-24T00:34:11;2.53;;;1.30;;
19883;SDS011;10104;50.732;10.174;2023-04-24T00:36:33;2.70;;;1.23;;
19883;SDS011;10104;50.732;10.174;2023-04-24T00:38:55;3.70;;;1.43;;
19883;SDS011;10104;50.732;10.174;2023-04-24T00:41:16;3.43;;;1.23;;
19883;SDS011;10104;50.732;10.174;2023-04-24T00:43:38;2.50;;;1.13;;
19883;SDS011;10104;50.732;10.174;2023-04-24T00:46:00;1.53;;;0.93;;
19883;SDS011;10104;50.732;10.174;2023-04-24T00:48:23;2.90;;;1.27;;
19883;SDS011;10104;50.732;10.174;2023-04-24T00:50:45;2.37;;;1.43;;
19883;SDS011;10104;50.732;10.174;2023-04-24T00:53:06;2.33;;;1.30;;
19883;SDS011;10104;50.732;10.174;2023-04-24T00:55:28;2.40;;;1.20;;
19883;SDS011;10104;50.732;10.174;2023-04-24T00:57:50;2.07;;;1.27;;
19883;SDS011;10104;50.732;10.174;2023-04-24T01:00:12;1.67;;;1.40;;
19883;SDS011;10104;50.732;10.174;2023-04-24T01:02:36;3.90;;;1.40;;
19883;SDS011;10104;50.732;10.174;2023-04-24T01:05:01;2.73;;;1.53;;
19883;SDS011;10104;50.732;10.174;2023-04-24T01:07:23;1.60;;;1.40;;
19883;SDS011;10104;50.732;10.174;2023-04-24T01:09:45;3.43;;;1.60;;
19883;SDS011;10104;50.732;10.174;2023-04-24T01:12:09;2.17;;;1.50;;
19883;SDS011;10104;50.732;10.174;2023-04-24T01:14:30;2.67;;;1.43;;
19883;SDS011;10104;50.732;10.174;2023-04-24T01:16:52;3.30;;;1.50;;
19883;SDS011;10104;50.732;10.174;2023-04-24T01:19:13;2.87;;;1.40;;
19883;SDS011;10104;50.732;10.174;2023-04-24T01:21:37;1.70;;;1.40;;
19883;SDS011;10104;50.732;10.174;2023-04-24T01:24:00;1.47;;;1.20;;
19883;SDS011;10104;50.732;10.174;2023-04-24T01:26:21;2.13;;;1.40;;
19883;SDS011;10104;50.732;10.174;2023-04-24T01:28:43;1.37;;;1.20;;
19883;SDS011;10104;50.732;10.174;2023-04-24T01:31:05;1.93;;;1.30;;
19883;SDS011;10104;50.732;10.174;2023-04-24T01:33:27;2.07;;;1.40;;
19883;SDS011;10104;50.732;10.174;2023-04-24T01:35:48;2.60;;;1.50;;
19883;SDS011;10104;50.732;10.174;2023-04-24T01:38:10;3.10;;;1.70;;
19883;SDS011;10104;50.732;10.174;2023-04-24T01:40:32;1.90;;;1.40;;
19883;SDS011;10104;50.732;10.174;2023-04-24T01:42:53;3.63;;;1.40;;
19883;SDS011;10104;50.732;10.174;2023-04-24T01:45:15;3.57;;;1.50;;
19883;SDS011;10104;50.732;10.174;2023-04-24T01:47:37;2.07;;;1.40;;
19883;SDS011;10104;50.732;10.174;2023-04-24T01:49:59;2.07;;;1.20;;
19883;SDS011;10104;50.732;10.174;2023-04-24T01:52:21;1.63;;;1.27;;
19883;SDS011;10104;50.732;10.174;2023-04-24T01:54:43;1.77;;;1.17;;
19883;SDS011;10104;50.732;10.174;2023-04-24T01:57:04;2.27;;;1.47;;
19883;SDS011;10104;50.732;10.174;2023-04-24T01:59:26;1.93;;;1.23;;
19883;SDS011;10104;50.732;10.174;2023-04-24T02:01:49;4.10;;;1.43;;
19883;SDS011;10104;50.732;10.174;2023-04-24T02:04:11;1.77;;;1.27;;
19883;SDS011;10104;50.732;10.174;2023-04-24T02:06:32;2.53;;;1.33;;
19883;SDS011;10104;50.732;10.174;2023-04-24T02:08:54;1.20;;;0.90;;
19883;SDS011;10104;50.732;10.174;2023-04-24T02:11:16;2.20;;;1.00;;
19883;SDS011;10104;50.732;10.174;2023-04-24T02:13:37;2.30;;;1.10;;
19883;SDS011;10104;50.732;10.174;2023-04-24T02:15:58;2.43;;;1.10;;
19883;SDS011;10104;50.732;10.174;2023-04-24T02:18:20;2.60;;;1.20;;
19883;SDS011;10104;50.732;10.174;2023-04-24T02:20:43;4.27;;;1.13;;
19883;SDS011;10104;50.732;10.174;2023-04-24T02:23:05;1.83;;;1.13;;
19883;SDS011;10104;50.732;10.174;2023-04-24T02:25:26;1.63;;;1.23;;
19883;SDS011;10104;50.732;10.174;2023-04-24T02:27:48;5.13;;;1.30;;
19883;SDS011;10104;50.732;10.174;2023-04-24T02:30:09;2.30;;;1.20;;
19883;SDS011;10104;50.732;10.174;2023-04-24T02:32:31;3.90;;;1.40;;
19883;SDS011;10104;50.732;10.174;2023-04-24T02:34:53;5.13;;;1.30;;
19883;SDS011;10104;50.732;10.174;2023-04-24T02:37:14;1.70;;;1.00;;
19883;SDS011;10104;50.732;10.174;2023-04-24T02:39:36;4.30;;;1.43;;
19883;SDS011;10104;50.732;10.174;2023-04-24T02:41:57;2.67;;;1.03;;
19883;SDS011;10104;50.732;10.174;2023-04-24T02:44:19;2.60;;;1.10;;
19883;SDS011;10104;50.732;10.174;2023-04-24T02:46:40;1.77;;;1.07;;
19883;SDS011;10104;50.732;10.174;2023-04-24T02:49:03;2.23;;;0.93;;
19883;SDS011;10104;50.732;10.174;2023-04-24T02:51:24;3.70;;;1.20;;
19883;SDS011;10104;50.732;10.174;2023-04-24T02:53:46;3.57;;;1.40;;
19883;SDS011;10104;50.732;10.174;2023-04-24T02:56:07;2.27;;;1.10;;
19883;SDS011;10104;50.732;10.174;2023-04-24T02:58:29;2.40;;;1.10;;
19883;SDS011;10104;50.732;10.174;2023-04-24T03:00:54;1.57;;;1.13;;
19883;SDS011;10104;50.732;10.174;2023-04-24T03:03:19;3.73;;;1.17;;
19883;SDS011;10104;50.732;10.174;2023-04-24T03:05:40;9.73;;;5.10;;
19883;SDS011;10104;50.732;10.174;2023-04-24T03:08:02;6.73;;;3.63;;
19883;SDS011;10104;50.732;10.174;2023-04-24T03:10:23;9.60;;;4.53;;
19883;SDS011;10104;50.732;10.174;2023-04-24T03:12:45;4.40;;;2.60;;
19883;SDS011;10104;50.732;10.174;2023-04-24T03:15:07;1.57;;;1.10;;
19883;SDS011;10104;50.732;10.174;2023-04-24T03:17:29;2.63;;;1.00;;
19883;SDS011;10104;50.732;10.174;2023-04-24T03:19:51;3.27;;;0.93;;
19883;SDS011;10104;50.732;10.174;2023-04-24T03:22:12;2.23;;;1.13;;
19883;SDS011;10104;50.732;10.174;2023-04-24T03:24:34;2.47;;;0.97;;
19883;SDS011;10104;50.732;10.174;2023-04-24T03:26:55;2.60;;;1.00;;
19883;SDS011;10104;50.732;10.174;2023-04-24T03:29:18;1.47;;;0.77;;
19883;SDS011;10104;50.732;10.174;2023-04-24T03:31:39;2.20;;;0.93;;
19883;SDS011;10104;50.732;10.174;2023-04-24T03:34:01;2.33;;;1.00;;
19883;SDS011;10104;50.732;10.174;2023-04-24T03:36:22;1.30;;;0.83;;
19883;SDS011;10104;50.732;10.174;2023-04-24T03:38:44;1.97;;;0.90;;
19883;SDS011;10104;50.732;10.174;2023-04-24T03:41:06;1.57;;;1.00;;
19883;SDS011;10104;50.732;10.174;2023-04-24T03:43:27;2.53;;;1.10;;
19883;SDS011;10104;50.732;10.174;2023-04-24T03:45:49;2.47;;;1.23;;
19883;SDS011;10104;50.732;10.174;2023-04-24T03:48:10;2.23;;;1.40;;
19883;SDS011;10104;50.732;10.174;2023-04-24T03:50:32;3.57;;;1.20;;
19883;SDS011;10104;50.732;10.174;2023-04-24T03:52:53;1.47;;;1.10;;
19883;SDS011;10104;50.732;10.174;2023-04-24T03:55:15;8.97;;;6.00;;
19883;SDS011;10104;50.732;10.174;2023-04-24T03:57:36;5.73;;;3.00;;
19883;SDS011;10104;50.732;10.174;2023-04-24T03:59:58;3.50;;;1.40;;
19883;SDS011;10104;50.732;10.174;2023-04-24T04:02:19;3.17;;;1.20;;
19883;SDS011;10104;50.732;10.174;2023-04-24T04:04:41;2.70;;;1.10;;
19883;SDS011;10104;50.732;10.174;2023-04-24T04:07:03;2.90;;;1.20;;
19883;SDS011;10104;50.732;10.174;2023-04-24T04:09:24;2.50;;;1.10;;
19883;SDS011;10104;50.732;10.174;2023-04-24T04:11:46;2.40;;;0.90;;
19883;SDS011;10104;50.732;10.174;2023-04-24T04:14:07;2.30;;;1.00;;
19883;SDS011;10104;50.732;10.174;2023-04-24T04:16:29;1.90;;;1.07;;
19883;SDS011;10104;50.732;10.174;2023-04-24T04:18:51;2.77;;;1.93;;
19883;SDS011;10104;50.732;10.174;2023-04-24T04:21:12;7.20;;;1.10;;
19883;SDS011;10104;50.732;10.174;2023-04-24T04:23:34;2.07;;;1.13;;
19883;SDS011;10104;50.732;10.174;2023-04-24T04:25:56;2.90;;;2.23;;
19883;SDS011;10104;50.732;10.174;2023-04-24T04:28:17;4.77;;;3.70;;
19883;SDS011;10104;50.732;10.174;2023-04-24T04:30:41;2.23;;;1.30;;
19883;SDS011;10104;50.732;10.174;2023-04-24T04:33:02;1.17;;;1.00;;
19883;SDS011;10104;50.732;10.174;2023-04-24T04:35:24;1.70;;;0.90;;
19883;SDS011;10104;50.732;10.174;2023-04-24T04:37:46;2.40;;;1.07;;
19883;SDS011;10104;50.732;10.174;2023-04-24T04:40:07;1.97;;;1.00;;
19883;SDS011;10104;50.732;10.174;2023-04-24T04:42:33;2.70;;;1.20;;
19883;SDS011;10104;50.732;10.174;2023-04-24T04:44:58;1.83;;;1.20;;
19883;SDS011;10104;50.732;10.174;2023-04-24T04:47:20;4.23;;;1.27;;
19883;SDS011;10104;50.732;10.174;2023-04-24T04:49:45;1.90;;;1.00;;
19883;SDS011;10104;50.732;10.174;2023-04-24T04:52:07;1.93;;;1.03;;
19883;SDS011;10104;50.732;10.174;2023-04-24T04:54:28;1.47;;;1.00;;
19883;SDS011;10104;50.732;10.174;2023-04-24T04:56:50;2.03;;;1.07;;
19883;SDS011;10104;50.732;10.174;2023-04-24T04:59:12;4.10;;;1.07;;
19883;SDS011;10104;50.732;10.174;2023-04-24T05:01:34;2.17;;;1.10;;
19883;SDS011;10104;50.732;10.174;2023-04-24T05:03:56;2.17;;;0.93;;
19883;SDS011;10104;50.732;10.174;2023-04-24T05:06:17;2.27;;;1.20;;
19883;SDS011;10104;50.732;10.174;2023-04-24T05:08:39;3.50;;;1.37;;
19883;SDS011;10104;50.732;10.174;2023-04-24T05:11:01;3.30;;;1.40;;
19883;SDS011;10104;50.732;10.174;2023-04-24T05:13:22;2.57;;;1.03;;
19883;SDS011;10104;50.732;10.174;2023-04-24T05:15:59;3.33;;;1.20;;
19883;SDS011;10104;50.732;10.174;2023-04-24T05:18:20;2.30;;;1.37;;
19883;SDS011;10104;50.732;10.174;2023-04-24T05:20:41;2.33;;;1.00;;
19883;SDS011;10104;50.732;10.174;2023-04-24T05:23:04;1.67;;;1.37;;
19883;SDS011;10104;50.732;10.174;2023-04-24T05:25:26;3.40;;;1.30;;
19883;SDS011;10104;50.732;10.174;2023-04-24T05:27:48;3.03;;;1.33;;
19883;SDS011;10104;50.732;10.174;2023-04-24T05:30:09;2.73;;;1.40;;
19883;SDS011;10104;50.732;10.174;2023-04-24T05:32:31;1.70;;;1.20;;
19883;SDS011;10104;50.732;10.174;2023-04-24T05:34:52;1.67;;;1.10;;
19883;SDS011;10104;50.732;10.174;2023-04-24T05:37:14;2.07;;;1.40;;
19883;SDS011;10104;50.732;10.174;2023-04-24T05:39:36;3.20;;;1.63;;
19883;SDS011;10104;50.732;10.174;2023-04-24T05:41:57;1.60;;;1.27;;
19883;SDS011;10104;50.732;10.174;2023-04-24T05:44:19;3.63;;;1.50;;
19883;SDS011;10104;50.732;10.174;2023-04-24T05:46:41;1.73;;;1.30;;
19883;SDS011;10104;50.732;10.174;2023-04-24T05:49:02;3.67;;;1.67;;
19883;SDS011;10104;50.732;10.174;2023-04-24T05:51:24;3.90;;;1.53;;
19883;SDS011;10104;50.732;10.174;2023-04-24T05:53:45;2.67;;;1.50;;
19883;SDS011;10104;50.732;10.174;2023-04-24T05:56:07;2.20;;;1.30;;
19883;SDS011;10104;50.732;10.174;2023-04-24T05:58:28;2.20;;;1.50;;
19883;SDS011;10104;50.732;10.174;2023-04-24T06:00:50;4.23;;;1.70;;
19883;SDS011;10104;50.732;10.174;2023-04-24T06:03:11;1.93;;;1.43;;
19883;SDS011;10104;50.732;10.174;2023-04-24T06:05:33;3.30;;;1.40;;
19883;SDS011;10104;50.732;10.174;2023-04-24T06:07:56;5.67;;;1.30;;
19883;SDS011;10104;50.732;10.174;2023-04-24T06:10:17;3.07;;;1.47;;
19883;SDS011;10104;50.732;10.174;2023-04-24T06:12:39;2.40;;;1.40;;
19883;SDS011;10104;50.732;10.174;2023-04-24T06:15:00;3.17;;;1.30;;
19883;SDS011;10104;50.732;10.174;2023-04-24T06:17:22;3.20;;;1.53;;
19883;SDS011;10104;50.732;10.174;2023-04-24T06:19:43;2.70;;;1.30;;
19883;SDS011;10104;50.732;10.174;2023-04-24T06:22:05;1.57;;;1.27;;
19883;SDS011;10104;50.732;10.174;2023-04-24T06:24:30;3.73;;;1.40;;
19883;SDS011;10104;50.732;10.174;2023-04-24T06:26:52;1.20;;;1.07;;
19883;SDS011;10104;50.732;10.174;2023-04-24T06:29:13;2.37;;;1.30;;
19883;SDS011;10104;50.732;10.174;2023-04-24T06:31:35;2.33;;;1.53;;
19883;SDS011;10104;50.732;10.174;2023-04-24T06:33:58;2.13;;;1.33;;
19883;SDS011;10104;50.732;10.174;2023-04-24T06:36:19;1.30;;;1.20;;
19883;SDS011;10104;50.732;10.174;2023-04-24T06:38:41;3.23;;;1.70;;
19883;SDS011;10104;50.732;10.174;2023-04-24T06:41:03;1.40;;;1.27;;
19883;SDS011;10104;50.732;10.174;2023-04-24T06:43:26;2.43;;;1.10;;
19883;SDS011;10104;50.732;10.174;2023-04-24T06:45:47;2.33;;;1.53;;
19883;SDS011;10104;50.732;10.174;2023-04-24T06:48:09;1.67;;;1.20;;
19883;SDS011;10104;50.732;10.174;2023-04-24T06:50:31;2.07;;;1.20;;
19883;SDS011;10104;50.732;10.174;2023-04-24T06:52:52;1.50;;;1.40;;
19883;SDS011;10104;50.732;10.174;2023-04-24T06:55:14;1.73;;;1.30;;
19883;SDS011;10104;50.732;10.174;2023-04-24T06:57:37;2.37;;;1.20;;
19883;SDS011;10104;50.732;10.174;2023-04-24T06:59:59;2.73;;;1.33;;
19883;SDS011;10104;50.732;10.174;2023-04-24T07:02:21;2.27;;;1.30;;
19883;SDS011;10104;50.732;10.174;2023-04-24T07:04:42;7.07;;;1.40;;
19883;SDS011;10104;50.732;10.174;2023-04-24T07:07:04;1.90;;;1.10;;
19883;SDS011;10104;50.732;10.174;2023-04-24T07:09:27;1.67;;;1.30;;
19883;SDS011;10104;50.732;10.174;2023-04-24T07:11:49;4.10;;;1.77;;
19883;SDS011;10104;50.732;10.174;2023-04-24T07:14:11;1.53;;;1.17;;
19883;SDS011;10104;50.732;10.174;2023-04-24T07:16:33;2.87;;;1.80;;
19883;SDS011;10104;50.732;10.174;2023-04-24T07:18:55;1.90;;;1.50;;
19883;SDS011;10104;50.732;10.174;2023-04-24T07:21:16;2.93;;;1.40;;
19883;SDS011;10104;50.732;10.174;2023-04-24T07:23:38;1.50;;;1.40;;
19883;SDS011;10104;50.732;10.174;2023-04-24T07:25:59;4.23;;;1.50;;
19883;SDS011;10104;50.732;10.174;2023-04-24T07:28:21;2.30;;;1.77;;
19883;SDS011;10104;50.732;10.174;2023-04-24T07:30:43;1.63;;;1.40;;
19883;SDS011;10104;50.732;10.174;2023-04-24T07:33:04;2.53;;;1.60;;
19883;SDS011;10104;50.732;10.174;2023-04-24T07:35:26;2.53;;;1.50;;
19883;SDS011;10104;50.732;10.174;2023-04-24T07:37:48;2.07;;;1.50;;
19883;SDS011;10104;50.732;10.174;2023-04-24T07:40:09;2.40;;;1.33;;
19883;SDS011;10104;50.732;10.174;2023-04-24T07:42:31;1.93;;;1.43;;
19883;SDS011;10104;50.732;10.174;2023-04-24T07:44:55;1.87;;;1.40;;
19883;SDS011;10104;50.732;10.174;2023-04-24T07:47:17;2.50;;;1.70;;
19883;SDS011;10104;50.732;10.174;2023-04-24T07:49:38;1.93;;;1.37;;
19883;SDS011;10104;50.732;10.174;2023-04-24T07:52:00;2.23;;;1.47;;
19883;SDS011;10104;50.732;10.174;2023-04-24T07:54:23;2.37;;;1.30;;
19883;SDS011;10104;50.732;10.174;2023-04-24T07:56:45;2.47;;;1.67;;
19883;SDS011;10104;50.732;10.174;2023-04-24T07:59:06;3.93;;;1.70;;
19883;SDS011;10104;50.732;10.174;2023-04-24T08:01:27;1.93;;;1.60;;
19883;SDS011;10104;50.732;10.174;2023-04-24T08:03:49;1.80;;;1.27;;
19883;SDS011;10104;50.732;10.174;2023-04-24T08:06:12;2.77;;;1.60;;
19883;SDS011;10104;50.732;10.174;2023-04-24T08:08:33;2.83;;;1.70;;
19883;SDS011;10104;50.732;10.174;2023-04-24T08:10:55;2.57;;;1.53;;
19883;SDS011;10104;50.732;10.174;2023-04-24T08:13:16;2.43;;;1.70;;
19883;SDS011;10104;50.732;10.174;2023-04-24T08:15:38;1.73;;;1.23;;
19883;SDS011;10104;50.732;10.174;2023-04-24T08:17:59;1.60;;;1.40;;
19883;SDS011;10104;50.732;10.174;2023-04-24T08:20:21;2.77;;;1.70;;
19883;SDS011;10104;50.732;10.174;2023-04-24T08:22:43;2.20;;;1.47;;
19883;SDS011;10104;50.732;10.174;2023-04-24T08:25:04;2.87;;;1.40;;
19883;SDS011;10104;50.732;10.174;2023-04-24T08:27:26;1.90;;;1.40;;
19883;SDS011;10104;50.732;10.174;2023-04-24T08:29:49;2.37;;;1.73;;
19883;SDS011;10104;50.732;10.174;2023-04-24T08:32:10;2.83;;;1.60;;
19883;SDS011;10104;50.732;10.174;2023-04-24T08:34:32;1.87;;;1.60;;
19883;SDS011;10104;50.732;10.174;2023-04-24T08:36:53;2.10;;;1.73;;
19883;SDS011;10104;50.732;10.174;2023-04-24T08:39:15;4.40;;;1.90;;
19883;SDS011;10104;50.732;10.174;2023-04-24T08:41:37;2.47;;;1.77;;
19883;SDS011;10104;50.732;10.174;2023-04-24T08:43:59;2.60;;;1.83;;
19883;SDS011;10104;50.732;10.174;2023-04-24T08:46:21;1.93;;;1.60;;
19883;SDS011;10104;50.732;10.174;2023-04-24T08:48:44;2.67;;;1.87;;
19883;SDS011;10104;50.732;10.174;2023-04-24T08:51:07;3.27;;;2.30;;
19883;SDS011;10104;50.732;10.174;2023-04-24T08:53:29;3.63;;;2.70;;
19883;SDS011;10104;50.732;10.174;2023-04-24T08:55:54;3.87;;;2.40;;
19883;SDS011;10104;50.732;10.174;2023-04-24T08:58:16;2.97;;;2.60;;
19883;SDS011;10104;50.732;10.174;2023-04-24T09:00:39;3.23;;;2.10;;
19883;SDS011;10104;50.732;10.174;2023-04-24T09:03:05;2.90;;;2.13;;
19883;SDS011;10104;50.732;10.174;2023-04-24T09:05:27;5.37;;;2.63;;
19883;SDS011;10104;50.732;10.174;2023-04-24T09:07:49;3.53;;;2.53;;
19883;SDS011;10104;50.732;10.174;2023-04-24T09:10:15;3.23;;;2.40;;
19883;SDS011;10104;50.732;10.174;2023-04-24T09:12:36;4.97;;;2.50;;
19883;SDS011;10104;50.732;10.174;2023-04-24T09:14:58;2.37;;;2.17;;
19883;SDS011;10104;50.732;10.174;2023-04-24T09:17:21;4.63;;;2.67;;
19883;SDS011;10104;50.732;10.174;2023-04-24T09:19:44;4.13;;;2.50;;
19883;SDS011;10104;50.732;10.174;2023-04-24T09:22:06;2.53;;;2.20;;
19883;SDS011;10104;50.732;10.174;2023-04-24T09:24:30;3.60;;;2.60;;
19883;SDS011;10104;50.732;10.174;2023-04-24T09:26:56;2.90;;;2.50;;
19883;SDS011;10104;50.732;10.174;2023-04-24T09:29:19;2.60;;;2.20;;
19883;SDS011;10104;50.732;10.174;2023-04-24T09:31:41;2.80;;;2.40;;
19883;SDS011;10104;50.732;10.174;2023-04-24T09:34:03;2.90;;;2.60;;
19883;SDS011;10104;50.732;10.174;2023-04-24T09:36:29;2.70;;;2.10;;
19883;SDS011;10104;50.732;10.174;2023-04-24T09:39:01;3.47;;;2.60;;
19883;SDS011;10104;50.732;10.174;2023-04-24T09:41:23;3.65;;;2.60;;
19883;SDS011;10104;50.732;10.174;2023-04-24T09:43:45;3.35;;;2.60;;
19883;SDS011;10104;50.732;10.174;2023-04-24T09:46:07;4.97;;;3.00;;
19883;SDS011;10104;50.732;10.174;2023-04-24T09:48:34;6.53;;;2.90;;
19883;SDS011;10104;50.732;10.174;2023-04-24T09:50:57;5.55;;;2.85;;
19883;SDS011;10104;50.732;10.174;2023-04-24T09:53:23;2.88;;;2.58;;
19883;SDS011;10104;50.732;10.174;2023-04-24T09:55:45;4.55;;;2.78;;
19883;SDS011;10104;50.732;10.174;2023-04-24T09:58:09;2.77;;;2.53;;
19883;SDS011;10104;50.732;10.174;2023-04-24T10:00:32;4.20;;;3.03;;
19883;SDS011;10104;50.732;10.174;2023-04-24T10:02:55;3.63;;;2.80;;
19883;SDS011;10104;50.732;10.174;2023-04-24T10:05:17;3.28;;;2.95;;
19883;SDS011;10104;50.732;10.174;2023-04-24T10:07:38;3.75;;;2.95;;
19883;SDS011;10104;50.732;10.174;2023-04-24T10:10:00;3.00;;;2.70;;
19883;SDS011;10104;50.732;10.174;2023-04-24T10:12:22;7.43;;;3.03;;
19883;SDS011;10104;50.732;10.174;2023-04-24T10:14:44;2.70;;;2.50;;
19883;SDS011;10104;50.732;10.174;2023-04-24T10:17:08;3.35;;;2.40;;
19883;SDS011;10104;50.732;10.174;2023-04-24T10:19:30;3.83;;;2.50;;
19883;SDS011;10104;50.732;10.174;2023-04-24T10:21:52;2.85;;;2.22;;
19883;SDS011;10104;50.732;10.174;2023-04-24T10:24:16;3.13;;;2.10;;
19883;SDS011;10104;50.732;10.174;2023-04-24T10:26:40;2.17;;;1.97;;
19883;SDS011;10104;50.732;10.174;2023-04-24T10:29:01;3.07;;;2.10;;
19883;SDS011;10104;50.732;10.174;2023-04-24T10:31:23;2.60;;;2.40;;
19883;SDS011;10104;50.732;10.174;2023-04-24T10:33:46;2.83;;;2.53;;
19883;SDS011;10104;50.732;10.174;2023-04-24T10:36:09;2.63;;;2.40;;
19883;SDS011;10104;50.732;10.174;2023-04-24T10:38:31;2.50;;;2.00;;
19883;SDS011;10104;50.732;10.174;2023-04-24T10:41:09;4.53;;;2.40;;
19883;SDS011;10104;50.732;10.174;2023-04-24T10:43:37;3.83;;;2.00;;
19883;SDS011;10104;50.732;10.174;2023-04-24T10:46:04;2.93;;;2.20;;
19883;SDS011;10104;50.732;10.174;2023-04-24T10:48:27;2.43;;;2.10;;
19883;SDS011;10104;50.732;10.174;2023-04-24T10:50:52;2.67;;;2.30;;
19883;SDS011;10104;50.732;10.174;2023-04-24T10:53:15;2.55;;;2.22;;
19883;SDS011;10104;50.732;10.174;2023-04-24T10:55:39;2.33;;;2.10;;
19883;SDS011;10104;50.732;10.174;2023-04-24T10:58:02;2.42;;;2.20;;
19883;SDS011;10104;50.732;10.174;2023-04-24T11:00:25;2.42;;;1.85;;
19883;SDS011;10104;50.732;10.174;2023-04-24T11:02:48;2.10;;;1.90;;
19883;SDS011;10104;50.732;10.174;2023-04-24T11:05:12;4.45;;;2.10;;
19883;SDS011;10104;50.732;10.174;2023-04-24T11:10:45;4.15;;;2.20;;
19883;SDS011;10104;50.732;10.174;2023-04-24T11:13:08;2.40;;;1.90;;
19883;SDS011;10104;50.732;10.174;2023-04-24T11:15:32;4.10;;;2.58;;
19883;SDS011;10104;50.732;10.174;2023-04-24T11:17:53;2.75;;;2.38;;
19883;SDS011;10104;50.732;10.174;2023-04-24T11:20:17;2.95;;;2.28;;
19883;SDS011;10104;50.732;10.174;2023-04-24T11:22:48;2.65;;;2.17;;
19883;SDS011;10104;50.732;10.174;2023-04-24T11:25:14;4.63;;;2.25;;
19883;SDS011;10104;50.732;10.174;2023-04-24T11:27:43;2.20;;;2.00;;
19883;SDS011;10104;50.732;10.174;2023-04-24T11:30:07;2.95;;;2.20;;
19883;SDS011;10104;50.732;10.174;2023-04-24T11:34:58;3.03;;;2.20;;
19883;SDS011;10104;50.732;10.174;2023-04-24T11:37:23;2.40;;;2.00;;
19883;SDS011;10104;50.732;10.174;2023-04-24T11:39:45;3.33;;;1.73;;
19883;SDS011;10104;50.732;10.174;2023-04-24T11:42:08;2.00;;;1.80;;
19883;SDS011;10104;50.732;10.174;2023-04-24T11:44:30;2.63;;;2.30;;
19883;SDS011;10104;50.732;10.174;2023-04-24T11:46:55;2.58;;;1.85;;
19883;SDS011;10104;50.732;10.174;2023-04-24T11:49:17;4.13;;;2.25;;
19883;SDS011;10104;50.732;10.174;2023-04-24T11:51:39;4.90;;;2.03;;
19883;SDS011;10104;50.732;10.174;2023-04-24T11:54:12;2.92;;;2.20;;
19883;SDS011;10104;50.732;10.174;2023-04-24T11:56:34;3.15;;;2.20;;
19883;SDS011;10104;50.732;10.174;2023-04-24T11:58:56;4.00;;;2.30;;
19883;SDS011;10104;50.732;10.174;2023-04-24T12:01:17;4.13;;;2.30;;
19883;SDS011;10104;50.732;10.174;2023-04-24T12:03:39;2.17;;;1.90;;
19883;SDS011;10104;50.732;10.174;2023-04-24T12:06:05;1.90;;;1.77;;
19883;SDS011;10104;50.732;10.174;2023-04-24T12:08:29;2.77;;;2.00;;
19883;SDS011;10104;50.732;10.174;2023-04-24T12:10:50;2.20;;;2.00;;
19883;SDS011;10104;50.732;10.174;2023-04-24T12:13:12;2.53;;;2.30;;
19883;SDS011;10104;50.732;10.174;2023-04-24T12:15:34;2.00;;;1.80;;
19883;SDS011;10104;50.732;10.174;2023-04-24T12:17:56;2.25;;;1.60;;
19883;SDS011;10104;50.732;10.174;2023-04-24T12:20:23;1.73;;;1.40;;
19883;SDS011;10104;50.732;10.174;2023-04-24T12:22:53;1.40;;;1.30;;
19883;SDS011;10104;50.732;10.174;2023-04-24T12:25:16;2.45;;;1.42;;
19883;SDS011;10104;50.732;10.174;2023-04-24T12:27:39;1.30;;;1.20;;
19883;SDS011;10104;50.732;10.174;2023-04-24T12:30:02;1.75;;;1.30;;
19883;SDS011;10104;50.732;10.174;2023-04-24T12:32:25;1.40;;;1.17;;
19883;SDS011;10104;50.732;10.174;2023-04-24T12:34:52;1.45;;;0.80;;
19883;SDS011;10104;50.732;10.174;2023-04-24T12:37:14;1.95;;;1.10;;
19883;SDS011;10104;50.732;10.174;2023-04-24T12:39:35;0.88;;;0.82;;
19883;SDS011;10104;50.732;10.174;2023-04-24T12:41:57;1.08;;;0.95;;
19883;SDS011;10104;50.732;10.174;2023-04-24T12:44:20;1.05;;;0.77;;
19883;SDS011;10104;50.732;10.174;2023-04-24T12:46:41;1.05;;;0.70;;
19883;SDS011;10104;50.732;10.174;2023-04-24T12:49:03;0.98;;;0.70;;
19883;SDS011;10104;50.732;10.174;2023-04-24T12:51:24;1.30;;;0.70;;
19883;SDS011;10104;50.732;10.174;2023-04-24T12:53:46;1.48;;;0.80;;
19883;SDS011;10104;50.732;10.174;2023-04-24T12:56:07;0.70;;;0.70;;
19883;SDS011;10104;50.732;10.174;2023-04-24T12:58:29;0.50;;;0.50;;
19883;SDS011;10104;50.732;10.174;2023-04-24T13:00:50;2.15;;;0.80;;
19883;SDS011;10104;50.732;10.174;2023-04-24T13:03:12;0.73;;;0.70;;
19883;SDS011;10104;50.732;10.174;2023-04-24T13:05:34;1.08;;;0.70;;
19883;SDS011;10104;50.732;10.174;2023-04-24T13:07:56;0.60;;;0.60;;
19883;SDS011;10104;50.732;10.174;2023-04-24T13:10:18;1.15;;;0.93;;
19883;SDS011;10104;50.732;10.174;2023-04-24T13:12:40;1.42;;;0.80;;
19883;SDS011;10104;50.732;10.174;2023-04-24T13:15:02;1.30;;;1.10;;
19883;SDS011;10104;50.732;10.174;2023-04-24T13:17:24;1.30;;;0.65;;
19883;SDS011;10104;50.732;10.174;2023-04-24T13:19:46;0.75;;;0.75;;
19883;SDS011;10104;50.732;10.174;2023-04-24T13:22:08;0.80;;;0.80;;
19883;SDS011;10104;50.732;10.174;2023-04-24T13:24:32;1.55;;;0.93;;
19883;SDS011;10104;50.732;10.174;2023-04-24T13:26:54;0.70;;;0.70;;
19883;SDS011;10104;50.732;10.174;2023-04-24T13:29:15;1.70;;;0.80;;
19883;SDS011;10104;50.732;10.174;2023-04-24T13:31:37;0.75;;;0.70;;
19883;SDS011;10104;50.732;10.174;2023-04-24T13:33:58;1.45;;;0.65;;
19883;SDS011;10104;50.732;10.174;2023-04-24T13:36:20;0.75;;;0.70;;
19883;SDS011;10104;50.732;10.174;2023-04-24T13:38:41;2.88;;;0.80;;
19883;SDS011;10104;50.732;10.174;2023-04-24T13:41:03;0.60;;;0.60;;
19883;SDS011;10104;50.732;10.174;2023-04-24T13:43:24;0.88;;;0.60;;
19883;SDS011;10104;50.732;10.174;2023-04-24T13:45:46;1.83;;;0.65;;
19883;SDS011;10104;50.732;10.174;2023-04-24T13:48:07;0.50;;;0.50;;
19883;SDS011;10104;50.732;10.174;2023-04-24T13:50:30;0.60;;;0.60;;
19883;SDS011;10104;50.732;10.174;2023-04-24T13:52:52;0.50;;;0.50;;
19883;SDS011;10104;50.732;10.174;2023-04-24T13:55:13;1.10;;;0.60;;
19883;SDS011;10104;50.732;10.174;2023-04-24T13:57:35;1.10;;;0.60;;
19883;SDS011;10104;50.732;10.174;2023-04-24T13:59:57;1.33;;;0.70;;
19883;SDS011;10104;50.732;10.174;2023-04-24T14:02:22;0.70;;;0.70;;
19883;SDS011;10104;50.732;10.174;2023-04-24T14:04:44;1.77;;;0.65;;
19883;SDS011;10104;50.732;10.174;2023-04-24T14:07:05;2.90;;;0.60;;
19883;SDS011;10104;50.732;10.174;2023-04-24T14:09:27;0.30;;;0.30;;